Time,TemperatureF,DewpointF,PressureIn,WindDirection,WindDirectionDegrees,WindSpeedMPH,WindSpeedGustMPH,Humidity,HourlyPrecipIn,Conditions,Clouds,dailyrainin,SolarRadiationWatts/m^2,SoftwareType,DateUTC
2013-05-03 00:01:00,60.3,42.6,30.16,ESE,107,0.0,0.0,52,0.00,FEW,BKN,0.00,0.0,WeatherDisplay:10.37,2013-05-03 04:01:00,
2013-05-03 00:06:00,60.1,42.9,30.17,South,171,0.0,0.0,53,0.00,FEW,BKN,0.00,0.0,WeatherDisplay:10.37,2013-05-03 04:06:00,
2013-05-03 00:11:00,60.4,42.7,30.16,South,170,0.0,0.0,52,0.00,FEW,BKN,0.00,0.0,WeatherDisplay:10.37,2013-05-03 04:11:00,
2013-05-03 00:16:00,60.6,42.4,30.16,SSE,164,0.0,0.0,51,0.00,FEW,BKN,0.00,0.0,WeatherDisplay:10.37,2013-05-03 04:16:00,
2013-05-03 00:21:00,60.6,42.9,30.17,SSE,150,0.1,1.1,52,0.00,FEW,BKN,0.00,0.0,WeatherDisplay:10.37,2013-05-03 04:21:00,
2013-05-03 00:26:00,60.4,42.2,30.17,SE,142,0.0,0.0,51,0.00,FEW,BKN,0.00,0.0,WeatherDisplay:10.37,2013-05-03 04:26:00,
2013-05-03 00:31:00,60.4,42.2,30.17,SE,141,0.0,0.0,51,0.00,FEW,BKN,0.00,0.0,WeatherDisplay:10.37,2013-05-03 04:31:00,
2013-05-03 00:36:00,60.1,41.9,30.17,SE,141,0.0,0.0,51,0.00,FEW,BKN,0.00,0.0,WeatherDisplay:10.37,2013-05-03 04:36:00,
2013-05-03 00:41:00,60.3,42.0,30.17,SE,143,0.0,1.1,51,0.00,FEW,BKN,0.00,0.0,WeatherDisplay:10.37,2013-05-03 04:41:00,
2013-05-03 00:46:00,60.4,42.2,30.17,ESE,106,0.0,0.0,51,0.00,FEW,BKN,0.00,0.0,WeatherDisplay:10.37,2013-05-03 04:46:00,
2013-05-03 00:51:00,60.4,42.7,30.17,NE,38,0.1,1.1,52,0.00,FEW,BKN,0.00,0.0,WeatherDisplay:10.37,2013-05-03 04:51:00,
2013-05-03 00:56:00,60.3,42.6,30.16,NE,43,0.0,1.1,52,0.00,FEW,BKN,0.00,0.0,WeatherDisplay:10.37,2013-05-03 04:56:00,
2013-05-03 01:01:00,60.3,42.6,30.17,NE,45,0.2,1.1,52,0.00,FEW,BKN,0.00,0.0,WeatherDisplay:10.37,2013-05-03 05:01:00,
2013-05-03 01:06:00,60.4,42.2,30.16,SE,130,0.2,1.1,51,0.00,FEW,BKN,0.00,0.0,WeatherDisplay:10.37,2013-05-03 05:06:00,
2013-05-03 01:11:00,60.4,42.2,30.16,ESE,111,0.0,1.1,51,0.00,FEW,BKN,0.00,0.0,WeatherDisplay:10.37,2013-05-03 05:11:00,
2013-05-03 01:16:00,60.6,42.4,30.16,North,7,0.0,1.1,51,0.00,FEW,BKN,0.00,0.0,WeatherDisplay:10.37,2013-05-03 05:16:00,
2013-05-03 01:21:00,60.4,42.2,30.16,NE,51,0.3,1.1,51,0.00,FEW,BKN,0.00,0.0,WeatherDisplay:10.37,2013-05-03 05:21:00,
2013-05-03 01:26:00,60.4,42.2,30.16,East,98,0.1,1.1,51,0.00,FEW,BKN,0.00,0.0,WeatherDisplay:10.37,2013-05-03 05:26:00,
2013-05-03 01:31:00,60.4,42.2,30.16,ESE,105,0.1,1.1,51,0.00,FEW,BKN,0.00,0.0,WeatherDisplay:10.37,2013-05-03 05:31:00,
2013-05-03 01:36:00,60.3,42.0,30.16,East,98,0.0,0.0,51,0.00,FEW,BKN,0.00,0.0,WeatherDisplay:10.37,2013-05-03 05:36:00,
2013-05-03 01:41:00,60.4,41.7,30.17,NE,38,0.2,2.3,50,0.00,FEW,BKN,0.00,0.0,WeatherDisplay:10.37,2013-05-03 05:41:00,
2013-05-03 01:46:00,60.4,40.6,30.17,NNE,12,1.6,3.5,48,0.00,FEW,BKN,0.00,0.0,WeatherDisplay:10.37,2013-05-03 05:46:00,
2013-05-03 01:51:00,60.8,41.0,30.16,NNW,343,0.5,2.3,48,0.00,FEW,BKN,0.00,0.0,WeatherDisplay:10.37,2013-05-03 05:51:00,
2013-05-03 01:56:00,60.8,40.4,30.16,ESE,115,1.3,3.5,47,0.00,FEW,BKN,0.00,0.0,WeatherDisplay:10.37,2013-05-03 05:56:00,
2013-05-03 02:01:00,61.0,40.0,30.16,SE,130,1.4,2.3,46,0.00,FEW,BKN,0.00,0.0,WeatherDisplay:10.37,2013-05-03 06:01:00,
2013-05-03 02:06:00,61.3,40.4,30.16,SE,140,2.1,4.6,46,0.00,FEW,BKN,0.00,0.0,WeatherDisplay:10.37,2013-05-03 06:06:00,
2013-05-03 02:11:00,61.3,40.4,30.16,ESE,120,0.4,2.3,46,0.00,FEW,BKN,0.00,0.0,WeatherDisplay:10.37,2013-05-03 06:11:00,
2013-05-03 02:16:00,61.0,40.0,30.16,SE,128,1.7,3.5,46,0.00,FEW,BKN,0.00,0.0,WeatherDisplay:10.37,2013-05-03 06:16:00,
2013-05-03 02:21:00,61.0,40.0,30.16,ESE,119,2.3,5.8,46,0.00,FEW,BKN,0.00,0.0,WeatherDisplay:10.37,2013-05-03 06:21:00,
2013-05-03 02:26:00,61.0,40.0,30.16,SSE,147,0.0,1.1,46,0.00,FEW,BKN,0.00,0.0,WeatherDisplay:10.37,2013-05-03 06:26:00,
2013-05-03 02:31:00,60.6,39.7,30.16,SE,133,2.0,3.5,46,0.00,FEW,BKN,0.00,0.0,WeatherDisplay:10.37,2013-05-03 06:31:00,
2013-05-03 02:36:00,60.8,39.9,30.16,SE,127,1.9,4.6,46,0.00,FEW,BKN,0.00,0.0,WeatherDisplay:10.37,2013-05-03 06:36:00,
2013-05-03 02:41:00,60.6,39.7,30.16,SE,124,1.4,3.5,46,0.00,FEW,BKN,0.00,0.0,WeatherDisplay:10.37,2013-05-03 06:41:00,
2013-05-03 02:46:00,60.6,40.3,30.17,ESE,113,0.2,1.1,47,0.00,FEW,BKN,0.00,0.0,WeatherDisplay:10.37,2013-05-03 06:46:00,
2013-05-03 02:51:00,60.4,40.6,30.17,SSE,163,0.6,4.6,48,0.00,FEW,BKN,0.00,0.0,WeatherDisplay:10.37,2013-05-03 06:51:00,
2013-05-03 02:56:00,60.3,40.5,30.17,NE,40,0.6,3.5,48,0.00,FEW,BKN,0.00,0.0,WeatherDisplay:10.37,2013-05-03 06:56:00,
2013-05-03 03:01:00,60.1,40.3,30.17,ESE,117,1.9,5.8,48,0.00,FEW,BKN,0.00,0.0,WeatherDisplay:10.37,2013-05-03 07:01:00,
2013-05-03 03:06:00,60.1,40.8,30.16,ESE,120,2.1,3.5,49,0.00,FEW,BKN,0.00,0.0,WeatherDisplay:10.37,2013-05-03 07:06:00,
2013-05-03 03:11:00,60.1,40.3,30.16,SSE,150,3.4,5.8,48,0.00,FEW,BKN,0.00,0.0,WeatherDisplay:10.37,2013-05-03 07:11:00,
2013-05-03 03:16:00,60.3,40.5,30.16,ESE,119,3.1,4.6,48,0.00,FEW,BKN,0.00,0.0,WeatherDisplay:10.37,2013-05-03 07:16:00,
2013-05-03 03:21:00,60.4,40.6,30.16,ESE,117,2.8,4.6,48,0.00,FEW,BKN,0.00,0.0,WeatherDisplay:10.37,2013-05-03 07:21:00,
2013-05-03 03:26:00,60.4,40.6,30.16,ESE,115,2.6,4.6,48,0.00,FEW,BKN,0.00,0.0,WeatherDisplay:10.37,2013-05-03 07:26:00,
2013-05-03 03:31:00,60.4,40.6,30.16,SSE,156,1.0,3.5,48,0.00,FEW,BKN,0.00,0.0,WeatherDisplay:10.37,2013-05-03 07:31:00,
2013-05-03 03:36:00,60.1,40.8,30.16,SSE,150,1.5,3.5,49,0.00,FEW,BKN,0.00,0.0,WeatherDisplay:10.37,2013-05-03 07:36:00,
2013-05-03 03:41:00,60.1,40.8,30.16,SE,137,1.2,3.5,49,0.00,FEW,BKN,0.00,0.0,WeatherDisplay:10.37,2013-05-03 07:41:00,
2013-05-03 03:46:00,59.9,40.7,30.16,SE,145,1.9,3.5,49,0.00,FEW,BKN,0.00,0.0,WeatherDisplay:10.37,2013-05-03 07:46:00,
2013-05-03 03:51:00,59.9,40.7,30.16,SE,128,2.4,4.6,49,0.00,FEW,BKN,0.00,0.0,WeatherDisplay:10.37,2013-05-03 07:51:00,
2013-05-03 03:56:00,59.7,40.5,30.16,ESE,120,1.8,4.6,49,0.00,FEW,BKN,0.00,0.0,WeatherDisplay:10.37,2013-05-03 07:56:00,
2013-05-03 04:01:00,59.7,40.5,30.17,SSE,154,3.6,5.8,49,0.00,FEW,BKN,0.00,0.0,WeatherDisplay:10.37,2013-05-03 08:01:00,
2013-05-03 04:06:00,59.7,40.5,30.16,SE,143,3.4,4.6,49,0.00,FEW,BKN,0.00,0.0,WeatherDisplay:10.37,2013-05-03 08:06:00,
2013-05-03 04:11:00,60.1,40.3,30.17,SE,146,5.2,8.1,48,0.00,FEW,BKN,0.00,0.0,WeatherDisplay:10.37,2013-05-03 08:11:00,
2013-05-03 04:16:00,60.4,40.1,30.17,SSE,150,4.5,6.9,47,0.00,FEW,BKN,0.00,0.0,WeatherDisplay:10.37,2013-05-03 08:16:00,
2013-05-03 04:21:00,60.8,39.9,30.17,SE,135,4.7,8.1,46,0.00,FEW,BKN,0.00,0.0,WeatherDisplay:10.37,2013-05-03 08:21:00,
2013-05-03 04:26:00,60.8,39.9,30.17,SE,129,4.5,6.9,46,0.00,FEW,BKN,0.00,0.0,WeatherDisplay:10.37,2013-05-03 08:26:00,
2013-05-03 04:31:00,60.6,39.7,30.17,SSE,148,4.6,6.9,46,0.00,FEW,BKN,0.00,0.0,WeatherDisplay:10.37,2013-05-03 08:31:00,
2013-05-03 04:36:00,60.6,39.7,30.16,SE,133,4.9,6.9,46,0.00,FEW,BKN,0.00,0.0,WeatherDisplay:10.37,2013-05-03 08:36:00,
2013-05-03 04:41:00,60.6,39.7,30.17,ESE,120,5.1,8.1,46,0.00,FEW,BKN,0.00,0.0,WeatherDisplay:10.37,2013-05-03 08:41:00,
2013-05-03 04:46:00,60.6,39.7,30.17,SSE,159,5.5,6.9,46,0.00,FEW,BKN,0.00,0.0,WeatherDisplay:10.37,2013-05-03 08:46:00,
2013-05-03 04:51:00,60.6,39.7,30.16,SSE,154,5.2,6.9,46,0.00,FEW,BKN,0.00,0.0,WeatherDisplay:10.37,2013-05-03 08:51:00,
2013-05-03 04:56:00,60.8,39.9,30.17,SSE,150,4.1,5.8,46,0.00,FEW,BKN,0.00,0.0,WeatherDisplay:10.37,2013-05-03 08:56:00,
2013-05-03 05:01:00,61.0,39.5,30.17,SE,124,5.4,8.1,45,0.00,FEW,BKN,0.00,0.0,WeatherDisplay:10.37,2013-05-03 09:01:00,
2013-05-03 05:06:00,61.0,39.5,30.17,ESE,109,5.5,6.9,45,0.00,FEW,BKN,0.00,0.0,WeatherDisplay:10.37,2013-05-03 09:06:00,
2013-05-03 05:11:00,61.2,39.6,30.17,SSE,153,4.8,6.9,45,0.00,FEW,BKN,0.00,0.0,WeatherDisplay:10.37,2013-05-03 09:11:00,
2013-05-03 05:16:00,61.2,39.6,30.17,SE,142,2.6,4.6,45,0.00,FEW,BKN,0.00,0.0,WeatherDisplay:10.37,2013-05-03 09:16:00,
2013-05-03 05:21:00,60.8,39.9,30.17,South,176,2.1,4.6,46,0.00,FEW,BKN,0.00,0.0,WeatherDisplay:10.37,2013-05-03 09:21:00,
2013-05-03 05:26:00,60.4,39.5,30.17,South,169,1.8,3.5,46,0.00,FEW,BKN,0.00,0.0,WeatherDisplay:10.37,2013-05-03 09:26:00,
2013-05-03 05:31:00,60.3,39.9,30.17,SE,141,2.1,4.6,47,0.00,FEW,BKN,0.00,0.0,WeatherDisplay:10.37,2013-05-03 09:31:00,
2013-05-03 05:36:00,60.1,40.3,30.17,SSE,161,1.6,3.5,48,0.00,FEW,BKN,0.00,0.0,WeatherDisplay:10.37,2013-05-03 09:36:00,
2013-05-03 05:41:00,59.7,40.0,30.17,SSE,148,1.7,3.5,48,0.00,FEW,BKN,0.00,0.0,WeatherDisplay:10.37,2013-05-03 09:41:00,
2013-05-03 05:46:00,59.7,40.0,30.17,South,169,1.5,3.5,48,0.00,FEW,BKN,0.00,0.0,WeatherDisplay:10.37,2013-05-03 09:46:00,
2013-05-03 05:51:00,59.7,40.0,30.17,SSE,157,1.8,3.5,48,0.00,FEW,BKN,0.00,0.0,WeatherDisplay:10.37,2013-05-03 09:51:00,
2013-05-03 05:56:00,59.7,40.0,30.17,SSE,158,1.6,2.8,48,0.00,FEW,BKN,0.00,0.0,WeatherDisplay:10.37,2013-05-03 09:56:00,
2013-05-03 06:01:00,59.7,40.0,30.16,SE,134,2.0,4.6,48,0.00,BKN,,0.00,0.0,WeatherDisplay:10.37,2013-05-03 10:01:00,
2013-05-03 06:06:00,59.9,40.1,30.17,SE,138,2.0,4.6,48,0.00,BKN,,0.00,0.0,WeatherDisplay:10.37,2013-05-03 10:06:00,
2013-05-03 06:11:00,59.9,40.1,30.17,SSE,164,1.4,2.3,48,0.00,BKN,,0.00,0.0,WeatherDisplay:10.37,2013-05-03 10:11:00,
2013-05-03 06:16:00,59.9,40.7,30.17,South,174,1.4,2.3,49,0.00,BKN,,0.00,0.0,WeatherDisplay:10.37,2013-05-03 10:16:00,
2013-05-03 06:21:00,59.7,40.5,30.17,South,170,1.2,2.3,49,0.00,BKN,,0.00,0.0,WeatherDisplay:10.37,2013-05-03 10:21:00,
2013-05-03 06:26:00,59.9,40.7,30.17,South,180,0.8,3.5,49,0.00,BKN,,0.00,0.0,WeatherDisplay:10.37,2013-05-03 10:26:00,
2013-05-03 06:31:00,59.7,40.5,30.17,South,175,1.4,2.3,49,0.00,BKN,,0.00,0.0,WeatherDisplay:10.37,2013-05-03 10:31:00,
2013-05-03 06:36:00,59.9,40.7,30.17,South,180,1.0,2.3,49,0.00,BKN,,0.00,0.0,WeatherDisplay:10.37,2013-05-03 10:36:00,
2013-05-03 06:41:00,60.3,41.0,30.17,South,187,0.7,2.3,49,0.00,BKN,,0.00,0.0,WeatherDisplay:10.37,2013-05-03 10:41:00,
2013-05-03 06:46:00,60.4,41.2,30.17,SSW,193,1.2,3.5,49,0.00,BKN,,0.00,0.0,WeatherDisplay:10.37,2013-05-03 10:46:00,
2013-05-03 06:51:00,60.8,41.0,30.17,South,190,1.6,4.6,48,0.00,BKN,,0.00,0.0,WeatherDisplay:10.37,2013-05-03 10:51:00,
2013-05-03 06:56:00,61.3,41.5,30.17,SSW,192,1.5,3.5,48,0.00,BKN,,0.00,0.0,WeatherDisplay:10.37,2013-05-03 10:56:00,
2013-05-03 07:01:00,61.7,40.7,30.17,SSE,168,1.3,3.5,46,0.00,BKN,,0.00,0.0,WeatherDisplay:10.37,2013-05-03 11:01:00,
2013-05-03 07:06:00,62.2,41.2,30.17,South,176,1.7,3.5,46,0.00,BKN,,0.00,0.1,WeatherDisplay:10.37,2013-05-03 11:06:00,
2013-05-03 07:11:00,62.4,40.2,30.18,South,170,2.3,4.6,44,0.00,BKN,,0.00,0.6,WeatherDisplay:10.37,2013-05-03 11:11:00,
2013-05-03 07:16:00,63.1,40.9,30.17,SSE,154,2.1,4.6,44,0.00,BKN,,0.00,1.3,WeatherDisplay:10.37,2013-05-03 11:16:00,
2013-05-03 07:21:00,63.7,41.3,30.18,SSE,167,2.2,4.6,44,0.00,BKN,,0.00,3.5,WeatherDisplay:10.37,2013-05-03 11:21:00,
2013-05-03 07:26:00,64.2,40.6,30.18,SE,130,1.6,5.8,42,0.00,BKN,,0.00,4.8,WeatherDisplay:10.37,2013-05-03 11:26:00,
2013-05-03 07:31:00,64.6,41.0,30.18,SSE,151,4.1,9.2,42,0.00,BKN,,0.00,8.0,WeatherDisplay:10.37,2013-05-03 11:31:00,
2013-05-03 07:36:00,64.9,41.3,30.18,SSE,158,3.8,5.8,42,0.00,BKN,,0.00,8.2,WeatherDisplay:10.37,2013-05-03 11:36:00,
2013-05-03 07:41:00,65.1,41.4,30.18,SSE,158,3.2,6.9,42,0.00,BKN,,0.00,12.4,WeatherDisplay:10.37,2013-05-03 11:41:00,
2013-05-03 07:46:00,65.5,40.5,30.18,SE,133,5.8,10.7,40,0.00,BKN,,0.00,15.3,WeatherDisplay:10.37,2013-05-03 11:46:00,
2013-05-03 07:51:00,65.8,40.8,30.18,South,177,3.5,6.9,40,0.00,BKN,,0.00,20.7,WeatherDisplay:10.37,2013-05-03 11:51:00,
2013-05-03 07:56:00,66.0,41.0,30.18,South,171,5.2,8.1,40,0.00,BKN,,0.00,31.3,WeatherDisplay:10.37,2013-05-03 11:56:00,
2013-05-03 08:01:00,66.2,41.2,30.18,SE,138,5.7,9.2,40,0.00,BKN,,0.00,25.8,WeatherDisplay:10.37,2013-05-03 12:01:00,
2013-05-03 08:06:00,66.4,40.7,30.18,SSE,167,5.1,10.4,39,0.00,BKN,,0.00,34.8,WeatherDisplay:10.37,2013-05-03 12:06:00,
2013-05-03 08:11:00,66.7,41.0,30.18,South,187,4.7,6.9,39,0.00,BKN,,0.00,51.4,WeatherDisplay:10.37,2013-05-03 12:11:00,
2013-05-03 08:16:00,67.1,40.6,30.19,South,185,5.7,10.4,38,0.00,BKN,,0.00,76.0,WeatherDisplay:10.37,2013-05-03 12:16:00,
2013-05-03 08:21:00,67.3,40.1,30.18,South,187,5.0,11.5,37,0.00,BKN,,0.00,89.4,WeatherDisplay:10.37,2013-05-03 12:21:00,
2013-05-03 08:26:00,67.8,41.3,30.18,SSW,206,3.4,5.8,38,0.00,BKN,,0.00,92.0,WeatherDisplay:10.37,2013-05-03 12:26:00,
2013-05-03 08:31:00,68.4,41.8,30.18,SSE,158,2.5,6.9,38,0.00,BKN,,0.00,120.9,WeatherDisplay:10.37,2013-05-03 12:31:00,
2013-05-03 08:36:00,68.2,40.2,30.18,SSW,207,5.3,8.3,36,0.00,BKN,,0.00,141.0,WeatherDisplay:10.37,2013-05-03 12:36:00,
2013-05-03 08:41:00,68.7,40.7,30.18,South,171,2.7,6.9,36,0.00,BKN,,0.00,160.6,WeatherDisplay:10.37,2013-05-03 12:41:00,
2013-05-03 08:46:00,69.1,40.3,30.18,South,177,4.2,6.9,35,0.00,BKN,,0.00,207.4,WeatherDisplay:10.37,2013-05-03 12:46:00,
2013-05-03 08:51:00,69.6,40.0,30.18,SSW,201,3.8,6.9,34,0.00,BKN,,0.00,229.4,WeatherDisplay:10.37,2013-05-03 12:51:00,
2013-05-03 08:56:00,69.8,40.2,30.19,SSE,165,4.8,6.9,34,0.00,BKN,,0.00,249.7,WeatherDisplay:10.37,2013-05-03 12:56:00,
2013-05-03 09:01:00,70.3,41.4,30.19,SSE,167,3.1,8.1,35,0.00,BKN,,0.00,276.2,WeatherDisplay:10.37,2013-05-03 13:01:00,
2013-05-03 09:06:00,70.5,40.8,30.18,ESE,121,4.9,9.5,34,0.00,BKN,,0.00,290.9,WeatherDisplay:10.37,2013-05-03 13:06:00,
2013-05-03 09:11:00,70.3,40.6,30.18,South,174,3.1,6.9,34,0.00,BKN,,0.00,313.2,WeatherDisplay:10.37,2013-05-03 13:11:00,
2013-05-03 09:16:00,70.5,40.0,30.18,South,173,4.7,9.2,33,0.00,BKN,,0.00,344.7,WeatherDisplay:10.37,2013-05-03 13:16:00,
2013-05-03 09:21:00,70.3,40.6,30.18,SSE,168,5.8,10.4,34,0.00,BKN,,0.00,393.8,WeatherDisplay:10.37,2013-05-03 13:21:00,
2013-05-03 09:26:00,70.5,40.0,30.18,SE,129,6.7,8.2,33,0.00,BKN,,0.00,418.9,WeatherDisplay:10.37,2013-05-03 13:26:00,
2013-05-03 09:31:00,70.9,41.1,30.17,ESE,119,5.7,8.1,34,0.00,BKN,,0.00,458.9,WeatherDisplay:10.37,2013-05-03 13:31:00,
2013-05-03 09:36:00,71.4,41.6,30.18,SE,133,5.6,8.1,34,0.00,BKN,,0.00,476.9,WeatherDisplay:10.37,2013-05-03 13:36:00,
2013-05-03 09:41:00,71.8,41.9,30.18,South,191,2.8,8.1,34,0.00,BKN,,0.00,510.6,WeatherDisplay:10.37,2013-05-03 13:41:00,
2013-05-03 09:46:00,71.8,41.1,30.18,South,186,4.2,9.2,33,0.00,BKN,,0.00,469.7,WeatherDisplay:10.37,2013-05-03 13:46:00,
2013-05-03 09:51:00,71.4,40.8,30.18,SE,143,4.3,9.5,33,0.00,BKN,,0.00,509.4,WeatherDisplay:10.37,2013-05-03 13:51:00,
2013-05-03 09:56:00,71.8,41.1,30.18,SSE,158,4.1,5.8,33,0.00,BKN,,0.00,585.5,WeatherDisplay:10.37,2013-05-03 13:56:00,
2013-05-03 10:01:00,72.1,40.6,30.18,ESE,119,4.6,8.1,32,0.00,BKN,,0.00,568.6,WeatherDisplay:10.37,2013-05-03 14:01:00,
2013-05-03 10:06:00,72.1,41.4,30.18,South,183,4.7,8.1,33,0.00,BKN,,0.00,548.6,WeatherDisplay:10.37,2013-05-03 14:06:00,
2013-05-03 10:11:00,72.1,40.6,30.18,SSE,148,5.5,10.2,32,0.00,BKN,,0.00,668.7,WeatherDisplay:10.37,2013-05-03 14:11:00,
2013-05-03 10:16:00,72.3,40.8,30.18,SE,131,3.6,5.8,32,0.00,BKN,,0.00,776.6,WeatherDisplay:10.37,2013-05-03 14:16:00,
2013-05-03 10:21:00,72.7,40.3,30.18,East,101,4.0,6.9,31,0.00,BKN,,0.00,894.3,WeatherDisplay:10.37,2013-05-03 14:21:00,
2013-05-03 10:26:00,73.2,40.8,30.18,SSE,168,4.3,9.2,31,0.00,BKN,,0.00,920.7,WeatherDisplay:10.37,2013-05-03 14:26:00,
2013-05-03 10:31:00,73.8,42.0,30.18,South,189,3.4,4.6,32,0.00,BKN,,0.00,901.5,WeatherDisplay:10.37,2013-05-03 14:31:00,
2013-05-03 10:36:00,73.9,40.5,30.18,SE,137,5.8,6.9,30,0.00,BKN,,0.00,981.4,WeatherDisplay:10.37,2013-05-03 14:36:00,
2013-05-03 10:41:00,74.1,41.5,30.18,South,186,3.5,6.9,31,0.00,BKN,,0.00,1002.1,WeatherDisplay:10.37,2013-05-03 14:41:00,
2013-05-03 10:46:00,74.1,42.4,30.18,South,183,2.7,8.1,32,0.00,BKN,,0.00,1047.6,WeatherDisplay:10.37,2013-05-03 14:46:00,
2013-05-03 10:51:00,74.5,42.7,30.18,South,181,4.3,6.3,32,0.00,BKN,,0.00,1058.7,WeatherDisplay:10.37,2013-05-03 14:51:00,
2013-05-03 10:56:00,73.9,41.4,30.18,SSW,194,3.8,5.8,31,0.00,BKN,,0.00,1013.2,WeatherDisplay:10.37,2013-05-03 14:56:00,
2013-05-03 11:01:00,74.1,42.4,30.18,South,185,0.4,3.5,32,0.00,BKN,,0.00,1057.9,WeatherDisplay:10.37,2013-05-03 15:01:00,
2013-05-03 11:06:00,74.5,41.9,30.18,SSE,153,4.1,8.1,31,0.00,BKN,,0.00,1052.9,WeatherDisplay:10.37,2013-05-03 15:06:00,
2013-05-03 11:11:00,74.5,41.9,30.18,SSE,163,3.5,5.8,31,0.00,BKN,,0.00,1156.2,WeatherDisplay:10.37,2013-05-03 15:11:00,
2013-05-03 11:16:00,74.1,40.7,30.18,SSE,156,2.9,6.9,30,0.00,BKN,,0.00,1101.6,WeatherDisplay:10.37,2013-05-03 15:16:00,
2013-05-03 11:21:00,74.1,41.5,30.19,South,188,2.5,5.8,31,0.00,BKN,,0.00,1285.9,WeatherDisplay:10.37,2013-05-03 15:21:00,
2013-05-03 11:26:00,74.8,42.2,30.18,SE,132,3.8,8.1,31,0.00,BKN,,0.00,1232.0,WeatherDisplay:10.37,2013-05-03 15:26:00,
2013-05-03 11:31:00,75.0,43.1,30.18,SSE,152,1.8,4.6,32,0.00,BKN,,0.00,1365.5,WeatherDisplay:10.37,2013-05-03 15:31:00,
2013-05-03 11:36:00,75.4,41.8,30.18,SSE,150,3.1,6.9,30,0.00,BKN,,0.00,1336.5,WeatherDisplay:10.37,2013-05-03 15:36:00,
2013-05-03 11:41:00,75.9,44.7,30.18,NE,52,1.5,3.0,33,0.00,BKN,,0.00,1406.5,WeatherDisplay:10.37,2013-05-03 15:41:00,
2013-05-03 11:46:00,77.0,44.0,30.17,SE,137,2.7,5.8,31,0.00,BKN,,0.00,1554.7,WeatherDisplay:10.37,2013-05-03 15:46:00,
2013-05-03 11:51:00,78.4,44.4,30.17,NNE,31,2.7,4.6,30,0.00,BKN,,0.00,1698.8,WeatherDisplay:10.37,2013-05-03 15:51:00,
2013-05-03 11:56:00,79.3,45.2,30.17,SE,141,2.4,5.6,30,0.00,BKN,,0.00,1775.8,WeatherDisplay:10.37,2013-05-03 15:56:00,
2013-05-03 12:01:00,79.3,41.5,30.17,East,101,3.0,6.9,26,0.00,BKN,,0.00,1819.8,WeatherDisplay:10.37,2013-05-03 16:01:00,
2013-05-03 12:06:00,80.2,45.1,30.17,NW,321,1.7,4.6,29,0.00,BKN,,0.00,1823.9,WeatherDisplay:10.37,2013-05-03 16:06:00,
2013-05-03 12:11:00,79.2,41.3,30.17,SE,133,6.6,10.4,26,0.00,BKN,,0.00,1908.5,WeatherDisplay:10.37,2013-05-03 16:11:00,
2013-05-03 12:16:00,79.5,43.5,30.17,NE,42,1.9,4.6,28,0.00,BKN,,0.00,1863.3,WeatherDisplay:10.37,2013-05-03 16:16:00,
2013-05-03 12:21:00,81.3,44.1,30.17,SSE,147,1.7,3.5,27,0.00,BKN,,0.00,1892.5,WeatherDisplay:10.37,2013-05-03 16:21:00,
2013-05-03 12:26:00,81.5,43.3,30.17,NE,47,2.9,5.8,26,0.00,BKN,,0.00,1801.6,WeatherDisplay:10.37,2013-05-03 16:26:00,
2013-05-03 12:31:00,81.7,43.5,30.17,SSE,163,3.6,6.3,26,0.00,BKN,,0.00,1802.2,WeatherDisplay:10.37,2013-05-03 16:31:00,
2013-05-03 12:36:00,81.1,43.0,30.17,ENE,73,3.2,6.9,26,0.00,BKN,,0.00,1869.6,WeatherDisplay:10.37,2013-05-03 16:36:00,
2013-05-03 12:41:00,80.2,44.2,30.16,East,101,1.3,6.9,28,0.00,BKN,,0.00,2082.0,WeatherDisplay:10.37,2013-05-03 16:41:00,
2013-05-03 12:46:00,80.8,44.6,30.16,East,82,2.8,6.9,28,0.00,BKN,,0.00,2092.9,WeatherDisplay:10.37,2013-05-03 16:46:00,
2013-05-03 12:51:00,80.8,43.7,30.17,ESE,114,3.5,5.8,27,0.00,BKN,,0.00,2137.0,WeatherDisplay:10.37,2013-05-03 16:51:00,
2013-05-03 12:56:00,81.3,42.1,30.16,ENE,62,3.8,6.9,25,0.00,BKN,,0.00,2167.3,WeatherDisplay:10.37,2013-05-03 16:56:00,
2013-05-03 13:01:00,82.0,43.8,30.16,East,88,2.8,5.8,26,0.00,BKN,,0.00,2171.7,WeatherDisplay:10.37,2013-05-03 17:01:00,
2013-05-03 13:06:00,82.9,44.5,30.16,North,11,1.5,3.8,26,0.00,BKN,,0.00,2176.6,WeatherDisplay:10.37,2013-05-03 17:06:00,
2013-05-03 13:11:00,83.1,43.6,30.16,ENE,57,2.9,5.8,25,0.00,BKN,,0.00,2185.0,WeatherDisplay:10.37,2013-05-03 17:11:00,
2013-05-03 13:16:00,82.0,44.7,30.15,ESE,117,2.3,6.9,27,0.00,BKN,,0.00,2127.3,WeatherDisplay:10.37,2013-05-03 17:16:00,
2013-05-03 13:21:00,83.1,44.7,30.15,ENE,73,1.9,5.3,26,0.00,BKN,,0.00,2246.6,WeatherDisplay:10.37,2013-05-03 17:21:00,
2013-05-03 13:26:00,84.4,46.7,30.15,North,2,0.6,2.3,27,0.00,BKN,,0.00,2171.0,WeatherDisplay:10.37,2013-05-03 17:26:00,
2013-05-03 13:31:00,83.7,46.1,30.15,NNE,33,3.9,6.9,27,0.00,BKN,,0.00,2016.8,WeatherDisplay:10.37,2013-05-03 17:31:00,
2013-05-03 13:36:00,83.7,45.1,30.15,NE,49,5.4,8.1,26,0.00,BKN,,0.00,2167.2,WeatherDisplay:10.37,2013-05-03 17:36:00,
2013-05-03 13:41:00,82.4,43.0,30.15,NE,39,2.9,6.9,25,0.00,BKN,,0.00,2051.4,WeatherDisplay:10.37,2013-05-03 17:41:00,
2013-05-03 13:46:00,82.4,46.0,30.15,ESE,108,1.7,5.4,28,0.00,BKN,,0.00,1740.7,WeatherDisplay:10.37,2013-05-03 17:46:00,
2013-05-03 13:51:00,82.2,46.8,30.15,ENE,59,4.9,9.2,29,0.00,BKN,,0.00,2105.6,WeatherDisplay:10.37,2013-05-03 17:51:00,
2013-05-03 13:56:00,82.0,46.6,30.15,NNE,32,0.0,1.1,29,0.00,BKN,,0.00,2146.8,WeatherDisplay:10.37,2013-05-03 17:56:00,
2013-05-03 14:01:00,82.4,45.1,30.15,NE,56,2.4,5.9,27,0.00,BKN,,0.00,2066.6,WeatherDisplay:10.37,2013-05-03 18:01:00,
2013-05-03 14:06:00,81.7,43.5,30.15,ENE,68,3.4,5.8,26,0.00,BKN,,0.00,1854.1,WeatherDisplay:10.37,2013-05-03 18:06:00,
2013-05-03 14:11:00,81.5,47.9,30.15,NNE,17,1.9,4.6,31,0.00,BKN,,0.00,2017.1,WeatherDisplay:10.37,2013-05-03 18:11:00,
2013-05-03 14:16:00,82.0,44.7,30.15,SE,132,2.3,5.8,27,0.00,BKN,,0.00,2040.4,WeatherDisplay:10.37,2013-05-03 18:16:00,
2013-05-03 14:21:00,82.0,44.7,30.14,NE,35,5.9,10.4,27,0.00,BKN,,0.00,2092.3,WeatherDisplay:10.37,2013-05-03 18:21:00,
2013-05-03 14:26:00,82.6,48.0,30.14,NNE,22,0.9,4.6,30,0.00,BKN,,0.00,2161.3,WeatherDisplay:10.37,2013-05-03 18:26:00,
2013-05-03 14:31:00,82.2,44.9,30.14,NE,51,2.8,5.8,27,0.00,BKN,,0.00,1787.0,WeatherDisplay:10.37,2013-05-03 18:31:00,
2013-05-03 14:36:00,81.9,45.6,30.14,ENE,61,4.9,8.1,28,0.00,BKN,,0.00,1893.4,WeatherDisplay:10.37,2013-05-03 18:36:00,
2013-05-03 14:41:00,81.3,45.1,30.14,NE,54,2.6,5.8,28,0.00,BKN,,0.00,1049.5,WeatherDisplay:10.37,2013-05-03 18:41:00,
2013-05-03 14:46:00,80.4,44.3,30.14,NE,53,2.1,5.8,28,0.00,BKN,,0.00,1135.6,WeatherDisplay:10.37,2013-05-03 18:46:00,
2013-05-03 14:51:00,79.9,43.9,30.13,NE,47,3.0,9.2,28,0.00,BKN,,0.00,1760.2,WeatherDisplay:10.37,2013-05-03 18:51:00,
2013-05-03 14:56:00,80.1,45.8,30.13,NNE,17,6.5,12.9,30,0.00,BKN,,0.00,1692.0,WeatherDisplay:10.37,2013-05-03 18:56:00,
2013-05-03 15:01:00,80.2,47.7,30.13,NE,43,2.3,3.5,32,0.00,BKN,,0.00,1599.4,WeatherDisplay:10.37,2013-05-03 19:01:00,
2013-05-03 15:06:00,80.6,44.5,30.13,NNE,18,3.9,8.2,28,0.00,BKN,,0.00,1619.3,WeatherDisplay:10.37,2013-05-03 19:06:00,
2013-05-03 15:11:00,80.4,44.3,30.13,ENE,68,7.6,12.7,28,0.00,BKN,,0.00,1688.3,WeatherDisplay:10.37,2013-05-03 19:11:00,
2013-05-03 15:16:00,80.4,45.2,30.13,East,85,4.7,8.1,29,0.00,BKN,,0.00,1769.3,WeatherDisplay:10.37,2013-05-03 19:16:00,
2013-05-03 15:21:00,79.9,43.9,30.13,NE,41,4.7,9.2,28,0.00,BKN,,0.00,1613.6,WeatherDisplay:10.37,2013-05-03 19:21:00,
2013-05-03 15:26:00,79.9,45.7,30.13,NE,45,2.8,6.9,30,0.00,BKN,,0.00,1669.1,WeatherDisplay:10.37,2013-05-03 19:26:00,
2013-05-03 15:31:00,80.2,46.0,30.12,ENE,75,3.6,5.8,30,0.00,BKN,,0.00,1707.0,WeatherDisplay:10.37,2013-05-03 19:31:00,
2013-05-03 15:36:00,80.4,45.2,30.12,East,82,2.2,5.8,29,0.00,BKN,,0.00,1665.2,WeatherDisplay:10.37,2013-05-03 19:36:00,
2013-05-03 15:41:00,80.8,44.6,30.12,NE,46,1.1,5.8,28,0.00,BKN,,0.00,1701.4,WeatherDisplay:10.37,2013-05-03 19:41:00,
2013-05-03 15:46:00,81.5,46.2,30.11,East,96,1.5,3.5,29,0.00,BKN,,0.00,1596.5,WeatherDisplay:10.37,2013-05-03 19:46:00,
2013-05-03 15:51:00,81.0,45.7,30.11,NNE,26,3.1,4.6,29,0.00,BKN,,0.00,1546.2,WeatherDisplay:10.37,2013-05-03 19:51:00,
2013-05-03 15:56:00,80.4,45.2,30.11,NNE,22,1.0,4.6,29,0.00,BKN,,0.00,1604.9,WeatherDisplay:10.37,2013-05-03 19:56:00,
2013-05-03 16:01:00,80.8,46.4,30.11,East,88,2.4,5.8,30,0.00,BKN,,0.00,1566.9,WeatherDisplay:10.37,2013-05-03 20:01:00,
2013-05-03 16:06:00,81.7,45.4,30.11,ENE,76,3.0,5.3,28,0.00,BKN,,0.00,1493.5,WeatherDisplay:10.37,2013-05-03 20:06:00,
2013-05-03 16:11:00,81.3,45.1,30.11,ENE,67,2.9,6.9,28,0.00,BKN,,0.00,1408.1,WeatherDisplay:10.37,2013-05-03 20:11:00,
2013-05-03 16:16:00,80.8,44.6,30.11,East,83,3.0,5.9,28,0.00,BKN,,0.00,1261.1,WeatherDisplay:10.37,2013-05-03 20:16:00,
2013-05-03 16:21:00,81.1,44.9,30.10,SSE,164,0.8,2.3,28,0.00,BKN,,0.00,1255.5,WeatherDisplay:10.37,2013-05-03 20:21:00,
2013-05-03 16:26:00,80.4,43.4,30.11,ENE,60,3.2,8.1,27,0.00,BKN,,0.00,1286.4,WeatherDisplay:10.37,2013-05-03 20:26:00,
2013-05-03 16:31:00,81.1,46.8,30.10,SE,145,0.8,5.4,30,0.00,BKN,,0.00,1285.2,WeatherDisplay:10.37,2013-05-03 20:31:00,
2013-05-03 16:36:00,81.3,45.1,30.10,North,5,2.1,5.8,28,0.00,BKN,,0.00,1272.4,WeatherDisplay:10.37,2013-05-03 20:36:00,
2013-05-03 16:41:00,80.6,42.5,30.10,NNE,29,2.8,5.8,26,0.00,BKN,,0.00,1260.8,WeatherDisplay:10.37,2013-05-03 20:41:00,
2013-05-03 16:46:00,80.2,43.2,30.10,SE,124,6.6,10.4,27,0.00,BKN,,0.00,1167.3,WeatherDisplay:10.37,2013-05-03 20:46:00,
2013-05-03 16:51:00,80.2,45.1,30.10,NNE,30,2.6,8.1,29,0.00,BKN,,0.00,1075.1,WeatherDisplay:10.37,2013-05-03 20:51:00,
2013-05-03 16:56:00,80.4,45.2,30.10,NE,45,2.1,6.3,29,0.00,BKN,,0.00,980.7,WeatherDisplay:10.37,2013-05-03 20:56:00,
2013-05-03 17:01:00,80.4,45.2,30.10,NNE,31,3.2,6.6,29,0.00,BKN,,0.00,982.3,WeatherDisplay:10.37,2013-05-03 21:01:00,
2013-05-03 17:06:00,80.2,44.2,30.09,ESE,114,3.4,5.8,28,0.00,BKN,,0.00,984.2,WeatherDisplay:10.37,2013-05-03 21:06:00,
2013-05-03 17:11:00,79.5,42.6,30.09,SE,135,6.0,9.5,27,0.00,BKN,,0.00,758.1,WeatherDisplay:10.37,2013-05-03 21:11:00,
2013-05-03 17:16:00,79.9,45.7,30.09,East,97,3.2,5.8,30,0.00,BKN,,0.00,568.0,WeatherDisplay:10.37,2013-05-03 21:16:00,
2013-05-03 17:21:00,79.3,43.4,30.09,SSE,147,4.5,8.1,28,0.00,BKN,,0.00,371.2,WeatherDisplay:10.37,2013-05-03 21:21:00,
2013-05-03 17:26:00,79.2,43.2,30.09,SE,137,3.2,6.9,28,0.00,BKN,,0.00,301.9,WeatherDisplay:10.37,2013-05-03 21:26:00,
2013-05-03 17:31:00,79.5,43.5,30.09,NE,53,3.6,4.6,28,0.00,BKN,,0.00,247.9,WeatherDisplay:10.37,2013-05-03 21:31:00,
2013-05-03 17:36:00,79.3,44.3,30.09,NE,34,2.1,6.9,29,0.00,BKN,,0.00,202.5,WeatherDisplay:10.37,2013-05-03 21:36:00,
2013-05-03 17:41:00,79.3,43.4,30.09,NE,40,1.1,6.9,28,0.00,BKN,,0.00,204.3,WeatherDisplay:10.37,2013-05-03 21:41:00,
2013-05-03 17:46:00,79.0,43.1,30.09,SE,126,3.1,5.8,28,0.00,BKN,,0.00,173.7,WeatherDisplay:10.37,2013-05-03 21:46:00,
2013-05-03 17:51:00,79.3,44.3,30.09,East,90,2.5,6.9,29,0.00,BKN,,0.00,160.1,WeatherDisplay:10.37,2013-05-03 21:51:00,
2013-05-03 17:56:00,78.6,43.7,30.09,NNE,28,4.4,8.1,29,0.00,BKN,,0.00,196.8,WeatherDisplay:10.37,2013-05-03 21:56:00,
2013-05-03 18:01:00,78.8,45.6,30.08,ENE,57,2.9,8.2,31,0.00,BKN,,0.00,173.0,WeatherDisplay:10.37,2013-05-03 22:01:00,
2013-05-03 18:06:00,78.4,44.4,30.09,SE,130,1.3,3.5,30,0.00,BKN,,0.00,132.6,WeatherDisplay:10.37,2013-05-03 22:06:00,
2013-05-03 18:11:00,78.6,44.6,30.09,NE,54,2.5,6.9,30,0.00,BKN,,0.00,120.9,WeatherDisplay:10.37,2013-05-03 22:11:00,
2013-05-03 18:16:00,78.4,44.4,30.09,ENE,58,2.0,3.5,30,0.00,BKN,,0.00,107.9,WeatherDisplay:10.37,2013-05-03 22:16:00,
2013-05-03 18:21:00,77.9,45.7,30.09,NE,52,5.3,6.9,32,0.00,BKN,,0.00,102.6,WeatherDisplay:10.37,2013-05-03 22:21:00,
2013-05-03 18:26:00,77.2,44.2,30.09,South,191,3.0,6.9,31,0.00,BKN,,0.00,106.3,WeatherDisplay:10.37,2013-05-03 22:26:00,
2013-05-03 18:31:00,77.7,45.5,30.09,ENE,64,3.1,6.9,32,0.00,BKN,,0.00,85.9,WeatherDisplay:10.37,2013-05-03 22:31:00,
2013-05-03 18:36:00,77.0,44.9,30.10,ENE,62,5.7,10.8,32,0.00,BKN,,0.00,131.5,WeatherDisplay:10.37,2013-05-03 22:36:00,
2013-05-03 18:41:00,76.5,45.2,30.09,NNE,33,3.6,8.1,33,0.00,BKN,,0.00,70.1,WeatherDisplay:10.37,2013-05-03 22:41:00,
2013-05-03 18:46:00,76.5,46.0,30.09,NE,39,5.0,8.4,34,0.00,BKN,,0.00,65.9,WeatherDisplay:10.37,2013-05-03 22:46:00,
2013-05-03 18:51:00,76.3,45.8,30.09,SSE,150,0.9,5.8,34,0.00,BKN,,0.00,60.5,WeatherDisplay:10.37,2013-05-03 22:51:00,
2013-05-03 18:56:00,75.9,45.5,30.09,ENE,69,4.4,9.2,34,0.00,BKN,,0.00,62.9,WeatherDisplay:10.37,2013-05-03 22:56:00,
2013-05-03 19:01:00,75.6,45.2,30.09,East,84,4.5,8.1,34,0.00,BKN,,0.00,46.7,WeatherDisplay:10.37,2013-05-03 23:01:00,
2013-05-03 19:06:00,75.4,45.1,30.09,ENE,74,3.7,6.9,34,0.00,BKN,,0.00,46.2,WeatherDisplay:10.37,2013-05-03 23:06:00,
2013-05-03 19:11:00,75.4,45.1,30.09,ENE,67,3.0,5.8,34,0.00,BKN,,0.00,48.9,WeatherDisplay:10.37,2013-05-03 23:11:00,
2013-05-03 19:16:00,75.2,45.7,30.10,NE,52,4.2,8.1,35,0.00,BKN,,0.00,34.7,WeatherDisplay:10.37,2013-05-03 23:16:00,
2013-05-03 19:21:00,74.7,45.2,30.10,NE,41,3.9,5.8,35,0.00,BKN,,0.00,31.0,WeatherDisplay:10.37,2013-05-03 23:21:00,
2013-05-03 19:26:00,74.5,45.0,30.10,NE,46,1.5,5.8,35,0.00,BKN,,0.00,15.6,WeatherDisplay:10.37,2013-05-03 23:26:00,
2013-05-03 19:31:00,74.1,45.5,30.10,NE,49,4.3,6.9,36,0.00,BKN,,0.00,12.4,WeatherDisplay:10.37,2013-05-03 23:31:00,
2013-05-03 19:36:00,73.6,45.0,30.10,NE,37,3.6,5.8,36,0.00,BKN,,0.00,13.0,WeatherDisplay:10.37,2013-05-03 23:36:00,
2013-05-03 19:41:00,73.2,44.7,30.10,NE,51,3.0,4.6,36,0.00,BKN,,0.00,8.7,WeatherDisplay:10.37,2013-05-03 23:41:00,
2013-05-03 19:46:00,73.0,45.2,30.10,NNE,31,3.2,5.8,37,0.00,BKN,,0.00,11.8,WeatherDisplay:10.37,2013-05-03 23:46:00,
2013-05-03 19:51:00,73.0,45.2,30.10,NE,38,2.5,5.8,37,0.00,BKN,,0.00,14.1,WeatherDisplay:10.37,2013-05-03 23:51:00,
2013-05-03 19:56:00,72.7,44.9,30.10,NNE,23,2.2,4.6,37,0.00,BKN,,0.00,7.9,WeatherDisplay:10.37,2013-05-03 23:56:00,
2013-05-03 20:01:00,72.5,45.4,30.10,NNE,29,1.9,4.6,38,0.00,BKN,,0.00,6.9,WeatherDisplay:10.37,2013-05-04 00:01:00,
2013-05-03 20:06:00,72.1,45.1,30.10,NNE,23,1.7,5.8,38,0.00,BKN,,0.00,3.3,WeatherDisplay:10.37,2013-05-04 00:06:00,
2013-05-03 20:11:00,71.8,44.1,30.11,NE,46,2.8,3.5,37,0.00,BKN,,0.00,1.4,WeatherDisplay:10.37,2013-05-04 00:11:00,
2013-05-03 20:16:00,71.8,44.8,30.11,NE,52,2.3,3.5,38,0.00,BKN,,0.00,0.8,WeatherDisplay:10.37,2013-05-04 00:16:00,
2013-05-03 20:21:00,71.4,44.5,30.11,NE,34,1.3,3.5,38,0.00,BKN,,0.00,0.5,WeatherDisplay:10.37,2013-05-04 00:21:00,
2013-05-03 20:26:00,71.2,44.3,30.11,North,5,0.8,2.3,38,0.00,BKN,,0.00,0.2,WeatherDisplay:10.37,2013-05-04 00:26:00,
2013-05-03 20:31:00,70.9,44.7,30.11,NNE,30,1.2,2.3,39,0.00,BKN,,0.00,0.0,WeatherDisplay:10.37,2013-05-04 00:31:00,
2013-05-03 20:36:00,70.7,44.5,30.11,ENE,57,1.4,4.6,39,0.00,BKN,,0.00,0.0,WeatherDisplay:10.37,2013-05-04 00:36:00,
2013-05-03 20:41:00,70.3,44.2,30.11,NE,39,1.8,3.5,39,0.00,BKN,,0.00,0.0,WeatherDisplay:10.37,2013-05-04 00:41:00,
2013-05-03 20:46:00,70.0,44.5,30.11,ENE,60,0.1,1.1,40,0.00,BKN,,0.00,0.0,WeatherDisplay:10.37,2013-05-04 00:46:00,
2013-05-03 20:51:00,70.0,44.5,30.11,ENE,68,1.0,2.3,40,0.00,BKN,,0.00,0.0,WeatherDisplay:10.37,2013-05-04 00:51:00,
2013-05-03 20:56:00,70.0,44.5,30.11,NNE,21,0.3,2.3,40,0.00,BKN,,0.00,0.0,WeatherDisplay:10.37,2013-05-04 00:56:00,
2013-05-03 21:01:00,69.6,44.2,30.11,NNE,25,0.1,1.1,40,0.00,SCT,BKN,0.00,0.0,WeatherDisplay:10.37,2013-05-04 01:01:00,
2013-05-03 21:06:00,69.4,44.7,30.11,NNE,29,0.0,1.1,41,0.00,SCT,BKN,0.00,0.0,WeatherDisplay:10.37,2013-05-04 01:06:00,
2013-05-03 21:11:00,69.3,44.5,30.11,NE,39,0.0,1.1,41,0.00,SCT,BKN,0.00,0.0,WeatherDisplay:10.37,2013-05-04 01:11:00,
2013-05-03 21:16:00,69.1,44.4,30.12,NE,40,0.2,1.1,41,0.00,SCT,BKN,0.00,0.0,WeatherDisplay:10.37,2013-05-04 01:16:00,
2013-05-03 21:21:00,68.9,44.2,30.12,ENE,78,0.6,1.1,41,0.00,SCT,BKN,0.00,0.0,WeatherDisplay:10.37,2013-05-04 01:21:00,
2013-05-03 21:26:00,68.5,44.5,30.12,NNE,13,0.0,3.5,42,0.00,SCT,BKN,0.00,0.0,WeatherDisplay:10.37,2013-05-04 01:26:00,
2013-05-03 21:31:00,68.5,44.5,30.13,NE,47,1.0,2.3,42,0.00,SCT,BKN,0.00,0.0,WeatherDisplay:10.37,2013-05-04 01:31:00,
2013-05-03 21:36:00,68.2,44.2,30.12,North,358,0.0,0.0,42,0.00,SCT,BKN,0.00,0.0,WeatherDisplay:10.37,2013-05-04 01:36:00,
2013-05-03 21:41:00,68.0,44.0,30.12,ESE,108,0.8,4.0,42,0.00,SCT,BKN,0.00,0.0,WeatherDisplay:10.37,2013-05-04 01:41:00,
2013-05-03 21:46:00,68.0,44.7,30.12,ENE,75,1.3,4.6,43,0.00,SCT,BKN,0.00,0.0,WeatherDisplay:10.37,2013-05-04 01:46:00,
2013-05-03 21:51:00,67.8,44.5,30.12,ESE,116,0.0,0.0,43,0.00,SCT,BKN,0.00,0.0,WeatherDisplay:10.37,2013-05-04 01:51:00,
2013-05-03 21:56:00,67.6,44.9,30.12,SSE,147,0.1,1.1,44,0.00,SCT,BKN,0.00,0.0,WeatherDisplay:10.37,2013-05-04 01:56:00,
2013-05-03 22:01:00,67.5,44.8,30.13,ENE,61,0.1,0.0,44,0.00,SCT,BKN,0.00,0.0,WeatherDisplay:10.37,2013-05-04 02:01:00,
2013-05-03 22:06:00,67.3,44.6,30.13,SE,145,0.4,1.1,44,0.00,SCT,BKN,0.00,0.0,WeatherDisplay:10.37,2013-05-04 02:06:00,
2013-05-03 22:11:00,67.1,44.4,30.12,SSE,158,0.0,1.1,44,0.00,SCT,BKN,0.00,0.0,WeatherDisplay:10.37,2013-05-04 02:11:00,
2013-05-03 22:16:00,66.9,44.3,30.12,SE,144,0.2,1.1,44,0.00,SCT,BKN,0.00,0.0,WeatherDisplay:10.37,2013-05-04 02:16:00,
2013-05-03 22:21:00,66.4,44.4,30.12,SE,128,1.9,3.0,45,0.00,SCT,BKN,0.00,0.0,WeatherDisplay:10.37,2013-05-04 02:21:00,
2013-05-03 22:26:00,66.4,44.4,30.13,SE,133,1.5,2.3,45,0.00,SCT,BKN,0.00,0.0,WeatherDisplay:10.37,2013-05-04 02:26:00,
2013-05-03 22:31:00,66.2,44.2,30.12,SE,146,1.5,2.3,45,0.00,SCT,BKN,0.00,0.0,WeatherDisplay:10.37,2013-05-04 02:31:00,
2013-05-03 22:36:00,66.2,44.2,30.12,SSE,161,0.1,2.3,45,0.00,SCT,BKN,0.00,0.0,WeatherDisplay:10.37,2013-05-04 02:36:00,
2013-05-03 22:41:00,66.0,43.5,30.12,SSE,160,1.8,4.6,44,0.00,SCT,BKN,0.00,0.0,WeatherDisplay:10.37,2013-05-04 02:41:00,
2013-05-03 22:46:00,66.0,43.5,30.13,SE,132,1.7,3.5,44,0.00,SCT,BKN,0.00,0.0,WeatherDisplay:10.37,2013-05-04 02:46:00,
2013-05-03 22:51:00,66.0,43.5,30.12,SE,138,0.6,2.5,44,0.00,SCT,BKN,0.00,0.0,WeatherDisplay:10.37,2013-05-04 02:51:00,
2013-05-03 22:56:00,65.8,43.3,30.12,ESE,110,1.5,2.3,44,0.00,SCT,BKN,0.00,0.0,WeatherDisplay:10.37,2013-05-04 02:56:00,
2013-05-03 23:01:00,65.7,43.1,30.12,ESE,117,2.2,3.5,44,0.00,FEW,BKN,0.00,0.0,WeatherDisplay:10.37,2013-05-04 03:01:00,
2013-05-03 23:06:00,65.5,42.4,30.12,SE,143,3.1,3.7,43,0.00,FEW,BKN,0.00,0.0,WeatherDisplay:10.37,2013-05-04 03:06:00,
2013-05-03 23:11:00,65.5,42.4,30.12,SE,140,3.4,4.6,43,0.00,FEW,BKN,0.00,0.0,WeatherDisplay:10.37,2013-05-04 03:11:00,
2013-05-03 23:16:00,65.5,42.4,30.11,ESE,111,3.0,5.8,43,0.00,FEW,BKN,0.00,0.0,WeatherDisplay:10.37,2013-05-04 03:16:00,
2013-05-03 23:21:00,65.5,42.4,30.11,SE,133,3.9,7.5,43,0.00,FEW,BKN,0.00,0.0,WeatherDisplay:10.37,2013-05-04 03:21:00,
2013-05-03 23:26:00,65.5,42.4,30.12,ESE,120,3.4,6.9,43,0.00,FEW,BKN,0.00,0.0,WeatherDisplay:10.37,2013-05-04 03:26:00,
2013-05-03 23:31:00,65.5,42.4,30.11,SE,140,3.9,6.9,43,0.00,FEW,BKN,0.00,0.0,WeatherDisplay:10.37,2013-05-04 03:31:00,
2013-05-03 23:36:00,65.3,42.8,30.11,SE,135,4.3,5.8,44,0.00,FEW,BKN,0.00,0.0,WeatherDisplay:10.37,2013-05-04 03:36:00,
2013-05-03 23:41:00,65.1,42.7,30.12,SE,139,4.3,5.8,44,0.00,FEW,BKN,0.00,0.0,WeatherDisplay:10.37,2013-05-04 03:41:00,
2013-05-03 23:46:00,65.1,43.2,30.12,SE,146,4.1,5.8,45,0.00,FEW,BKN,0.00,0.0,WeatherDisplay:10.37,2013-05-04 03:46:00,
2013-05-03 23:51:00,64.9,43.1,30.12,SE,133,4.7,6.9,45,0.00,FEW,BKN,0.00,0.0,WeatherDisplay:10.37,2013-05-04 03:51:00,
2013-05-03 23:56:00,64.8,42.9,30.12,SE,132,3.7,6.9,45,0.00,FEW,BKN,0.00,0.0,WeatherDisplay:10.37,2013-05-04 03:56:00,